Time;durP1;ratioP1;P1;durP2;ratioP2;P2;SDS_P1;SDS_P2;PMS_P1;PMS_P2;Temp;Humidity;BMP_temperature;BMP_pressure;BME280_temperature;BME280_humidity;BME280_pressure;Samples;Min_cycle;Max_cycle;Signal;HPM_P1;HPM_P2
2023/09/23 00:01:05;;;;;;;12.00;9.00;;;;;;;;;;5104718;28;20404;-61
2023/09/23 00:03:34;;;;;;;14.32;9.50;;;;;;;;;;5106259;28;20491;-61
2023/09/23 00:06:01;;;;;;;11.30;8.82;;;;;;;;;;5104353;28;20409;-61
2023/09/23 00:08:28;;;;;;;10.57;8.35;;;;;;;;;;5103717;28;20467;-62
2023/09/23 00:10:55;;;;;;;11.63;8.88;;;;;;;;;;5107181;28;20406;-61
2023/09/23 00:13:22;;;;;;;12.88;9.13;;;;;;;;;;5103516;28;20417;-61
2023/09/23 00:15:50;;;;;;;12.07;9.02;;;;;;;;;;5110926;27;20467;-61
2023/09/23 00:18:17;;;;;;;11.97;8.80;;;;;;;;;;5103452;28;20420;-62
2023/09/23 00:20:46;;;;;;;12.27;9.30;;;;;;;;;;5107181;27;20489;-61
2023/09/23 00:23:13;;;;;;;11.30;8.30;;;;;;;;;;5106572;28;20411;-61
2023/09/23 00:25:40;;;;;;;10.98;8.63;;;;;;;;;;5102703;28;20429;-59
2023/09/23 00:28:11;;;;;;;11.15;8.55;;;;;;;;;;5094115;28;20412;-60
2023/09/23 00:30:38;;;;;;;11.80;9.38;;;;;;;;;;5094016;28;20764;-61
2023/09/23 00:33:05;;;;;;;12.45;9.38;;;;;;;;;;5095062;27;20402;-61
2023/09/23 00:35:34;;;;;;;12.23;9.70;;;;;;;;;;5107338;27;20512;-61
2023/09/23 00:38:03;;;;;;;13.77;10.23;;;;;;;;;;5105540;28;20477;-62
2023/09/23 00:40:32;;;;;;;14.90;10.43;;;;;;;;;;5104676;28;20410;-61
2023/09/23 00:43:11;;;;;;;15.18;9.82;;;;;;;;;;5103362;28;20414;-61
2023/09/23 00:45:38;;;;;;;12.40;9.17;;;;;;;;;;5113895;27;20896;-61
2023/09/23 00:48:08;;;;;;;12.27;9.00;;;;;;;;;;5113395;27;20434;-62
2023/09/23 00:50:35;;;;;;;10.43;8.55;;;;;;;;;;5102920;28;20410;-61
2023/09/23 00:53:06;;;;;;;12.25;7.90;;;;;;;;;;5102936;28;20463;-61
2023/09/23 00:55:40;;;;;;;10.00;7.97;;;;;;;;;;5104529;28;20406;-61
2023/09/23 00:58:07;;;;;;;9.30;7.65;;;;;;;;;;5103403;28;20425;-61
2023/09/23 01:00:35;;;;;;;10.02;7.70;;;;;;;;;;5102305;28;20548;-62
2023/09/23 01:03:03;;;;;;;9.18;7.45;;;;;;;;;;5104430;28;20461;-61
2023/09/23 01:05:30;;;;;;;8.55;6.88;;;;;;;;;;5104940;28;20483;-61
2023/09/23 01:07:58;;;;;;;8.23;6.85;;;;;;;;;;5102085;28;20406;-61
2023/09/23 01:10:28;;;;;;;8.23;6.85;;;;;;;;;;5103020;28;20437;-61
2023/09/23 01:12:55;;;;;;;6.90;5.97;;;;;;;;;;5104445;28;20412;-61
2023/09/23 01:15:25;;;;;;;7.15;6.05;;;;;;;;;;5103053;28;20785;-61
2023/09/23 01:17:54;;;;;;;6.88;5.13;;;;;;;;;;5101732;28;20424;-61
2023/09/23 01:20:21;;;;;;;6.28;5.30;;;;;;;;;;5103310;28;20495;-62
2023/09/23 01:22:50;;;;;;;5.38;4.68;;;;;;;;;;5104441;28;20770;-61
2023/09/23 01:25:18;;;;;;;6.20;5.05;;;;;;;;;;5104331;28;20405;-61
2023/09/23 01:27:45;;;;;;;5.55;4.80;;;;;;;;;;5101852;28;20496;-61
2023/09/23 01:30:13;;;;;;;6.20;4.53;;;;;;;;;;5103899;28;20407;-61
2023/09/23 01:32:46;;;;;;;7.10;4.53;;;;;;;;;;5100304;28;20401;-60
2023/09/23 01:35:15;;;;;;;6.10;4.40;;;;;;;;;;5102150;28;20417;-61
2023/09/23 01:37:43;;;;;;;6.65;4.53;;;;;;;;;;5101649;28;20779;-61
2023/09/23 01:40:16;;;;;;;5.97;4.50;;;;;;;;;;5092815;28;20408;-61
2023/09/23 01:42:43;;;;;;;4.38;3.92;;;;;;;;;;5092750;28;20493;-61
2023/09/23 01:45:12;;;;;;;5.47;4.05;;;;;;;;;;5092289;28;20406;-61
2023/09/23 01:47:40;;;;;;;6.43;4.28;;;;;;;;;;5105939;27;20416;-61
2023/09/23 01:50:07;;;;;;;5.95;4.40;;;;;;;;;;5105363;27;20402;-61
2023/09/23 01:52:36;;;;;;;5.00;4.07;;;;;;;;;;5110921;27;20475;-61
2023/09/23 01:55:04;;;;;;;4.57;3.85;;;;;;;;;;5105205;28;20850;-61
2023/09/23 01:57:33;;;;;;;7.03;4.25;;;;;;;;;;5102447;28;20934;-61
2023/09/23 02:00:00;;;;;;;5.22;4.15;;;;;;;;;;5103864;28;20472;-61
2023/09/23 02:02:27;;;;;;;5.88;4.20;;;;;;;;;;5102045;28;20847;-60
2023/09/23 02:04:56;;;;;;;7.43;4.90;;;;;;;;;;5100925;28;20410;-61
2023/09/23 02:07:23;;;;;;;6.68;5.22;;;;;;;;;;5103087;28;20977;-61
2023/09/23 02:09:50;;;;;;;7.50;5.50;;;;;;;;;;5103218;28;20408;-60
2023/09/23 02:12:17;;;;;;;9.80;6.57;;;;;;;;;;5103877;28;20408;-61
2023/09/23 02:14:45;;;;;;;11.43;7.20;;;;;;;;;;5101928;28;20435;-61
2023/09/23 02:17:12;;;;;;;9.68;7.20;;;;;;;;;;5101489;28;20422;-61
2023/09/23 02:19:39;;;;;;;13.48;8.13;;;;;;;;;;5102725;28;20410;-61
2023/09/23 02:22:06;;;;;;;11.02;8.18;;;;;;;;;;5103615;28;20477;-61
2023/09/23 02:24:36;;;;;;;11.87;8.80;;;;;;;;;;5100979;28;20396;-61
2023/09/23 02:27:03;;;;;;;12.63;9.70;;;;;;;;;;5101752;28;20440;-62
2023/09/23 02:29:30;;;;;;;12.63;9.90;;;;;;;;;;5100632;28;20949;-61
2023/09/23 02:32:00;;;;;;;17.20;11.50;;;;;;;;;;5101895;28;20447;-60
2023/09/23 02:34:28;;;;;;;14.85;11.02;;;;;;;;;;5103136;28;20404;-61
2023/09/23 02:36:55;;;;;;;14.30;10.07;;;;;;;;;;5101549;28;20479;-61
2023/09/23 02:39:22;;;;;;;13.85;10.30;;;;;;;;;;5100513;28;20459;-61
2023/09/23 02:41:50;;;;;;;12.10;10.15;;;;;;;;;;5102756;28;20411;-61
2023/09/23 02:44:18;;;;;;;15.63;10.40;;;;;;;;;;5102264;28;20882;-61
2023/09/23 02:46:46;;;;;;;13.75;10.35;;;;;;;;;;5100572;28;20461;-62
2023/09/23 02:49:14;;;;;;;15.68;10.02;;;;;;;;;;5101351;28;20776;-62
2023/09/23 02:51:42;;;;;;;12.80;9.93;;;;;;;;;;5103056;28;20488;-61
2023/09/23 02:54:11;;;;;;;12.18;9.13;;;;;;;;;;5101918;28;20810;-62
2023/09/23 02:56:38;;;;;;;13.43;9.18;;;;;;;;;;5110370;27;20423;-61
2023/09/23 02:59:11;;;;;;;14.40;8.73;;;;;;;;;;5101849;28;20414;-62
2023/09/23 03:01:39;;;;;;;15.32;8.93;;;;;;;;;;5104516;27;20428;-61
2023/09/23 03:04:16;;;;;;;10.65;8.10;;;;;;;;;;5101039;28;20414;-61
2023/09/23 03:06:49;;;;;;;12.15;8.20;;;;;;;;;;5099487;28;20833;-62
2023/09/23 03:09:16;;;;;;;11.73;7.65;;;;;;;;;;5101933;28;20416;-60
2023/09/23 03:11:49;;;;;;;11.98;7.65;;;;;;;;;;5098758;28;20755;-61
2023/09/23 03:14:18;;;;;;;12.23;7.50;;;;;;;;;;5101886;28;20447;-60
2023/09/23 03:16:49;;;;;;;10.80;7.25;;;;;;;;;;5098543;28;20886;-61
2023/09/23 03:19:24;;;;;;;11.50;7.18;;;;;;;;;;5102349;28;20412;-61
2023/09/23 03:21:54;;;;;;;12.77;7.00;;;;;;;;;;5098468;28;20414;-61
2023/09/23 03:24:22;;;;;;;10.75;7.43;;;;;;;;;;5104854;28;20462;-61
2023/09/23 03:26:50;;;;;;;17.00;7.38;;;;;;;;;;5098063;28;20915;-61
2023/09/23 03:29:18;;;;;;;10.15;6.85;;;;;;;;;;5102694;28;20400;-61
2023/09/23 03:31:45;;;;;;;12.13;6.72;;;;;;;;;;5100930;28;20406;-61
2023/09/23 03:34:14;;;;;;;9.87;6.63;;;;;;;;;;5099492;28;20823;-62
2023/09/23 03:36:41;;;;;;;9.77;6.10;;;;;;;;;;5101618;28;20867;-61
2023/09/23 03:39:09;;;;;;;11.63;6.10;;;;;;;;;;5101891;28;20415;-61
2023/09/23 03:41:37;;;;;;;10.48;5.88;;;;;;;;;;5100103;28;20484;-62
2023/09/23 03:44:05;;;;;;;9.73;5.80;;;;;;;;;;5099661;28;20487;-61
2023/09/23 03:46:32;;;;;;;8.63;6.07;;;;;;;;;;5099674;28;20409;-61
2023/09/23 03:49:00;;;;;;;8.57;5.60;;;;;;;;;;5100757;28;20408;-61
2023/09/23 03:51:27;;;;;;;8.88;5.90;;;;;;;;;;5102323;28;20415;-61
2023/09/23 03:53:54;;;;;;;9.45;5.72;;;;;;;;;;5103655;28;20460;-61
2023/09/23 03:56:24;;;;;;;8.45;5.50;;;;;;;;;;5100190;28;20481;-61
2023/09/23 03:58:51;;;;;;;8.93;5.87;;;;;;;;;;5090506;28;20426;-62
2023/09/23 04:01:19;;;;;;;10.45;5.90;;;;;;;;;;5090426;28;20454;-61
2023/09/23 04:03:46;;;;;;;10.05;6.03;;;;;;;;;;5090494;28;20410;-62
2023/09/23 04:06:14;;;;;;;11.05;5.40;;;;;;;;;;5090701;28;20414;-61
2023/09/23 04:08:41;;;;;;;9.95;5.22;;;;;;;;;;5090505;28;20414;-62
2023/09/23 04:11:08;;;;;;;10.07;5.82;;;;;;;;;;5099939;28;20749;-60
2023/09/23 04:13:38;;;;;;;9.40;5.65;;;;;;;;;;5099195;28;20470;-61
2023/09/23 04:16:05;;;;;;;7.63;5.63;;;;;;;;;;5090238;28;20413;-62
2023/09/23 04:18:32;;;;;;;12.50;6.40;;;;;;;;;;5090274;28;20465;-61
2023/09/23 04:21:01;;;;;;;10.02;6.15;;;;;;;;;;5090470;28;20816;-62
2023/09/23 04:23:28;;;;;;;10.02;5.50;;;;;;;;;;5095221;28;20499;-62
2023/09/23 04:25:55;;;;;;;9.30;5.53;;;;;;;;;;5098970;28;20405;-62
2023/09/23 04:28:22;;;;;;;6.93;4.85;;;;;;;;;;5101522;28;20404;-62
2023/09/23 04:30:53;;;;;;;8.30;5.05;;;;;;;;;;5101775;28;20419;-62
2023/09/23 04:33:20;;;;;;;9.45;5.07;;;;;;;;;;5090198;28;20398;-61
2023/09/23 04:35:47;;;;;;;7.90;4.45;;;;;;;;;;5090056;28;20459;-61
2023/09/23 04:38:14;;;;;;;7.47;4.55;;;;;;;;;;5090877;28;20421;-61
2023/09/23 04:40:41;;;;;;;6.40;3.97;;;;;;;;;;5094075;28;20960;-61
2023/09/23 04:43:10;;;;;;;7.53;4.40;;;;;;;;;;5093656;28;20409;-61
2023/09/23 04:45:37;;;;;;;9.88;4.25;;;;;;;;;;5101469;28;20412;-61
2023/09/23 04:48:07;;;;;;;9.15;4.15;;;;;;;;;;5105504;28;20484;-61
2023/09/23 04:50:34;;;;;;;7.85;3.70;;;;;;;;;;5103645;28;20467;-61
2023/09/23 04:53:02;;;;;;;8.55;3.90;;;;;;;;;;5103688;28;20421;-61
2023/09/23 04:55:30;;;;;;;5.22;3.75;;;;;;;;;;5101133;28;20483;-62
2023/09/23 04:57:57;;;;;;;8.48;4.05;;;;;;;;;;5104669;28;20517;-61
2023/09/23 05:00:26;;;;;;;7.70;4.40;;;;;;;;;;5102618;28;20467;-61
2023/09/23 05:02:53;;;;;;;8.45;4.40;;;;;;;;;;5103256;28;20884;-61
2023/09/23 05:05:21;;;;;;;7.60;4.20;;;;;;;;;;5104786;28;20404;-62
2023/09/23 05:07:48;;;;;;;6.97;4.13;;;;;;;;;;5103442;28;20398;-62
2023/09/23 05:10:17;;;;;;;6.28;4.30;;;;;;;;;;5102148;28;20406;-62
2023/09/23 05:12:44;;;;;;;9.20;4.28;;;;;;;;;;5104602;28;20416;-61
2023/09/23 05:15:14;;;;;;;10.18;4.50;;;;;;;;;;5104690;28;20415;-61
2023/09/23 05:17:43;;;;;;;10.23;4.57;;;;;;;;;;5102817;28;20966;-61
2023/09/23 05:20:25;;;;;;;7.22;4.32;;;;;;;;;;5102584;28;20410;-61
2023/09/23 05:22:53;;;;;;;7.82;5.13;;;;;;;;;;5093181;28;20429;-61
2023/09/23 05:25:24;;;;;;;7.43;4.30;;;;;;;;;;5102914;28;20404;-62
2023/09/23 05:27:51;;;;;;;6.88;4.50;;;;;;;;;;5100777;28;20832;-61
2023/09/23 05:30:18;;;;;;;9.20;4.78;;;;;;;;;;5104399;28;20449;-61
2023/09/23 05:32:46;;;;;;;6.90;4.80;;;;;;;;;;5103179;28;20410;-61
2023/09/23 05:35:13;;;;;;;9.93;5.30;;;;;;;;;;5101397;28;20445;-61
2023/09/23 05:37:41;;;;;;;10.98;5.18;;;;;;;;;;5103620;28;20794;-62
2023/09/23 05:40:22;;;;;;;6.55;4.60;;;;;;;;;;5104156;28;20438;-61
2023/09/23 05:42:50;;;;;;;8.27;4.90;;;;;;;;;;5102166;28;20414;-62
2023/09/23 05:45:17;;;;;;;7.47;5.00;;;;;;;;;;5104002;28;20891;-61
2023/09/23 05:47:44;;;;;;;8.93;5.00;;;;;;;;;;5103659;28;20485;-61
2023/09/23 05:50:12;;;;;;;7.55;5.47;;;;;;;;;;5104333;28;20404;-61
2023/09/23 05:52:39;;;;;;;6.03;4.78;;;;;;;;;;5102752;28;20456;-61
2023/09/23 05:55:06;;;;;;;10.00;5.43;;;;;;;;;;5105033;28;20425;-62
2023/09/23 05:57:35;;;;;;;9.85;5.03;;;;;;;;;;5103634;28;20447;-61
2023/09/23 06:00:05;;;;;;;10.10;5.50;;;;;;;;;;5103230;28;20412;-61
2023/09/23 06:02:32;;;;;;;7.97;5.65;;;;;;;;;;5100159;28;20400;-61
2023/09/23 06:05:01;;;;;;;8.98;5.47;;;;;;;;;;5106053;27;20465;-62
2023/09/23 06:07:28;;;;;;;10.32;5.65;;;;;;;;;;5106848;27;20411;-62
2023/09/23 06:09:55;;;;;;;10.55;5.50;;;;;;;;;;5099851;28;20404;-61
2023/09/23 06:12:22;;;;;;;9.75;5.50;;;;;;;;;;5103766;28;20435;-61
2023/09/23 06:14:50;;;;;;;8.38;5.15;;;;;;;;;;5100600;27;20404;-61
2023/09/23 06:17:17;;;;;;;7.33;4.73;;;;;;;;;;5103783;28;20404;-61
2023/09/23 06:19:44;;;;;;;9.98;5.00;;;;;;;;;;5092080;28;20824;-60
2023/09/23 06:22:11;;;;;;;8.93;4.93;;;;;;;;;;5092081;28;20459;-61
2023/09/23 06:24:39;;;;;;;7.07;4.43;;;;;;;;;;5101962;28;20461;-61
2023/09/23 06:27:06;;;;;;;9.02;4.90;;;;;;;;;;5101506;28;20426;-62
2023/09/23 06:29:33;;;;;;;7.93;5.13;;;;;;;;;;5100761;28;20455;-60
2023/09/23 06:32:03;;;;;;;7.10;4.70;;;;;;;;;;5101200;28;20436;-59
2023/09/23 06:34:31;;;;;;;9.60;5.10;;;;;;;;;;5100970;28;20810;-62
2023/09/23 06:36:58;;;;;;;9.82;5.13;;;;;;;;;;5095908;27;20825;-61
2023/09/23 06:39:24;;;;;;;8.05;4.70;;;;;;;;;;5110005;27;20424;-62
2023/09/23 06:41:52;;;;;;;8.38;4.88;;;;;;;;;;5102276;27;20414;-62
2023/09/23 06:44:19;;;;;;;7.97;4.67;;;;;;;;;;5101881;28;20878;-61
2023/09/23 06:46:46;;;;;;;8.10;4.15;;;;;;;;;;5103603;27;20412;-60
2023/09/23 06:49:14;;;;;;;9.80;4.73;;;;;;;;;;5103531;28;20466;-59
2023/09/23 06:51:41;;;;;;;8.60;4.18;;;;;;;;;;5100749;28;20401;-62
2023/09/23 06:54:08;;;;;;;9.05;4.60;;;;;;;;;;5108227;27;21079;-59
2023/09/23 06:56:36;;;;;;;5.75;3.65;;;;;;;;;;5108775;28;20404;-62
2023/09/23 06:59:03;;;;;;;6.25;3.95;;;;;;;;;;5102661;27;20433;-62
2023/09/23 07:01:30;;;;;;;7.57;4.30;;;;;;;;;;5103548;28;20465;-62
2023/09/23 07:03:57;;;;;;;10.23;3.90;;;;;;;;;;5102502;28;20400;-61
2023/09/23 07:06:25;;;;;;;7.85;3.70;;;;;;;;;;5119906;27;20920;-62
2023/09/23 07:08:52;;;;;;;8.45;3.65;;;;;;;;;;5110833;27;20442;-62
2023/09/23 07:11:20;;;;;;;5.65;3.45;;;;;;;;;;5122890;27;20767;-62
2023/09/23 07:13:47;;;;;;;9.32;3.58;;;;;;;;;;5115531;27;20415;-62
2023/09/23 07:16:15;;;;;;;7.65;3.70;;;;;;;;;;5105522;28;20437;-62
2023/09/23 07:18:42;;;;;;;8.07;4.20;;;;;;;;;;5100790;28;20828;-60
2023/09/23 07:21:09;;;;;;;8.03;4.30;;;;;;;;;;5104079;28;20408;-62
2023/09/23 07:23:37;;;;;;;8.00;4.85;;;;;;;;;;5101937;28;20840;-62
2023/09/23 07:26:05;;;;;;;7.20;4.30;;;;;;;;;;5099461;28;20422;-60
2023/09/23 07:28:32;;;;;;;6.60;4.03;;;;;;;;;;5104473;28;20426;-59
2023/09/23 07:30:59;;;;;;;6.93;4.40;;;;;;;;;;5102181;28;20497;-60
2023/09/23 07:33:26;;;;;;;8.45;4.10;;;;;;;;;;5101894;28;20506;-62
2023/09/23 07:35:53;;;;;;;6.38;4.60;;;;;;;;;;5096499;28;20405;-61
2023/09/23 07:38:20;;;;;;;6.60;4.45;;;;;;;;;;5100360;28;20427;-61
2023/09/23 07:40:50;;;;;;;7.20;4.10;;;;;;;;;;5103482;28;20400;-62
2023/09/23 07:43:17;;;;;;;7.53;4.15;;;;;;;;;;5098177;28;20413;-62
2023/09/23 07:45:44;;;;;;;7.30;4.20;;;;;;;;;;5105261;27;20420;-64
2023/09/23 07:48:11;;;;;;;5.80;4.18;;;;;;;;;;5111095;27;20467;-64
2023/09/23 07:50:38;;;;;;;8.13;4.10;;;;;;;;;;5100585;28;20408;-63
2023/09/23 07:53:05;;;;;;;7.30;4.03;;;;;;;;;;5099413;28;20422;-64
2023/09/23 07:55:32;;;;;;;6.72;4.18;;;;;;;;;;5103578;28;20886;-61
2023/09/23 07:58:00;;;;;;;8.27;4.38;;;;;;;;;;5102536;28;20417;-59
2023/09/23 08:00:28;;;;;;;7.30;3.70;;;;;;;;;;5097613;28;20491;-60
2023/09/23 08:02:54;;;;;;;7.43;4.03;;;;;;;;;;5094012;28;20785;-62
2023/09/23 08:05:23;;;;;;;7.35;3.92;;;;;;;;;;5101293;28;20404;-61
2023/09/23 08:07:51;;;;;;;7.50;4.30;;;;;;;;;;5101808;28;20413;-62
2023/09/23 08:10:19;;;;;;;7.80;4.18;;;;;;;;;;5092099;28;20441;-63
2023/09/23 08:12:46;;;;;;;5.70;4.05;;;;;;;;;;5102224;28;20444;-61
2023/09/23 08:15:14;;;;;;;5.35;4.50;;;;;;;;;;5106343;28;20454;-58
2023/09/23 08:17:42;;;;;;;9.23;5.00;;;;;;;;;;5109981;27;20414;-56
2023/09/23 08:20:17;;;;;;;6.32;4.35;;;;;;;;;;5102787;28;20433;-58
2023/09/23 08:22:44;;;;;;;7.82;4.57;;;;;;;;;;5113219;27;20420;-60
2023/09/23 08:25:12;;;;;;;8.15;4.35;;;;;;;;;;5104831;28;20417;-60
2023/09/23 08:27:39;;;;;;;6.70;4.10;;;;;;;;;;5105722;28;20427;-60
2023/09/23 08:30:07;;;;;;;8.75;4.40;;;;;;;;;;5100407;28;20500;-61
2023/09/23 08:32:35;;;;;;;6.47;3.80;;;;;;;;;;5104940;28;20490;-60
2023/09/23 08:35:02;;;;;;;7.70;4.15;;;;;;;;;;5104718;28;20589;-61
2023/09/23 08:37:29;;;;;;;7.83;4.00;;;;;;;;;;5097764;28;20471;-61
2023/09/23 08:39:56;;;;;;;8.27;4.60;;;;;;;;;;5104243;28;20424;-61
2023/09/23 08:42:24;;;;;;;7.40;4.30;;;;;;;;;;5102394;28;20458;-61
2023/09/23 08:44:51;;;;;;;6.13;4.32;;;;;;;;;;5102121;28;20505;-62
2023/09/23 08:47:19;;;;;;;6.82;4.60;;;;;;;;;;5104197;28;20498;-63
2023/09/23 08:49:48;;;;;;;7.82;4.18;;;;;;;;;;5107842;28;20404;-60
2023/09/23 08:52:17;;;;;;;5.85;4.20;;;;;;;;;;5099916;28;20436;-63
2023/09/23 08:54:44;;;;;;;8.13;4.20;;;;;;;;;;5112398;27;20467;-63
2023/09/23 08:57:11;;;;;;;8.32;4.18;;;;;;;;;;5112660;27;20451;-62
2023/09/23 08:59:39;;;;;;;5.45;4.22;;;;;;;;;;5100919;28;20428;-61
2023/09/23 09:02:06;;;;;;;7.03;4.18;;;;;;;;;;5096116;28;20957;-62
2023/09/23 09:04:34;;;;;;;6.40;4.07;;;;;;;;;;5100172;28;20469;-62
2023/09/23 09:07:02;;;;;;;6.87;4.10;;;;;;;;;;5103837;28;20506;-61
2023/09/23 09:09:29;;;;;;;6.47;3.50;;;;;;;;;;5096398;28;20420;-60
2023/09/23 09:11:58;;;;;;;7.38;3.65;;;;;;;;;;5099538;28;20891;-64
2023/09/23 09:14:26;;;;;;;6.20;3.42;;;;;;;;;;5097623;28;20529;-65
2023/09/23 09:16:54;;;;;;;5.18;3.17;;;;;;;;;;5100248;28;20424;-64
2023/09/23 09:19:21;;;;;;;7.15;3.20;;;;;;;;;;5102183;28;20429;-64
2023/09/23 09:21:48;;;;;;;4.32;2.95;;;;;;;;;;5099941;28;20407;-65
2023/09/23 09:24:16;;;;;;;6.00;3.45;;;;;;;;;;5102419;28;20896;-65
2023/09/23 09:26:45;;;;;;;5.07;2.90;;;;;;;;;;5095295;28;20981;-64
2023/09/23 09:29:13;;;;;;;4.72;2.40;;;;;;;;;;5101602;28;20442;-64
2023/09/23 09:31:41;;;;;;;5.15;2.53;;;;;;;;;;5108940;28;20939;-65
2023/09/23 09:34:11;;;;;;;5.13;2.42;;;;;;;;;;5096903;28;20410;-65
2023/09/23 09:36:39;;;;;;;4.27;2.60;;;;;;;;;;5104529;28;20462;-64
2023/09/23 09:39:08;;;;;;;4.63;2.53;;;;;;;;;;5092256;28;20457;-64
2023/09/23 09:41:42;;;;;;;6.22;2.72;;;;;;;;;;5102675;28;20452;-64
2023/09/23 09:44:09;;;;;;;6.23;2.60;;;;;;;;;;5101008;28;20820;-64
2023/09/23 09:46:40;;;;;;;4.85;2.60;;;;;;;;;;5105426;27;20430;-65
2023/09/23 09:49:07;;;;;;;4.10;2.33;;;;;;;;;;5109156;27;20488;-64
2023/09/23 09:51:35;;;;;;;4.43;2.42;;;;;;;;;;5094796;28;20404;-64
2023/09/23 09:54:04;;;;;;;4.68;2.40;;;;;;;;;;5101864;28;20410;-65
2023/09/23 09:56:32;;;;;;;6.57;2.30;;;;;;;;;;5099216;28;20957;-63
2023/09/23 09:59:03;;;;;;;6.18;2.38;;;;;;;;;;5106923;28;20432;-61
2023/09/23 10:01:31;;;;;;;4.75;2.00;;;;;;;;;;5109141;27;20422;-63
2023/09/23 10:03:59;;;;;;;5.57;1.98;;;;;;;;;;5096907;28;20412;-64
2023/09/23 10:06:26;;;;;;;5.03;2.20;;;;;;;;;;5103980;28;20473;-61
2023/09/23 10:08:54;;;;;;;4.05;1.73;;;;;;;;;;5102012;28;20772;-62
2023/09/23 10:11:31;;;;;;;3.97;1.90;;;;;;;;;;5113395;28;20848;-62
2023/09/23 10:13:58;;;;;;;5.37;2.03;;;;;;;;;;5105036;28;20414;-63
2023/09/23 10:16:29;;;;;;;5.18;2.10;;;;;;;;;;5104065;28;20825;-64
2023/09/23 10:18:57;;;;;;;5.88;2.15;;;;;;;;;;5100521;28;20417;-64
2023/09/23 10:21:25;;;;;;;3.30;1.80;;;;;;;;;;5101788;28;20491;-63
2023/09/23 10:23:52;;;;;;;4.00;1.90;;;;;;;;;;5101055;27;20491;-62
2023/09/23 10:26:20;;;;;;;4.63;2.17;;;;;;;;;;5105398;27;20409;-66
2023/09/23 10:28:57;;;;;;;3.78;1.92;;;;;;;;;;5096291;27;20413;-63
2023/09/23 10:31:27;;;;;;;4.75;1.75;;;;;;;;;;5098341;28;20486;-63
2023/09/23 10:33:55;;;;;;;3.00;1.80;;;;;;;;;;5103977;28;20511;-63
2023/09/23 10:36:22;;;;;;;3.25;1.95;;;;;;;;;;5112454;27;20819;-63
2023/09/23 10:38:50;;;;;;;3.53;1.70;;;;;;;;;;5101645;28;20441;-63
2023/09/23 10:41:17;;;;;;;5.07;2.00;;;;;;;;;;5098139;28;20482;-61
2023/09/23 10:43:44;;;;;;;6.38;1.90;;;;;;;;;;5098176;28;20605;-62
2023/09/23 10:46:11;;;;;;;2.88;1.50;;;;;;;;;;5091471;28;20402;-63
2023/09/23 10:48:40;;;;;;;4.07;1.77;;;;;;;;;;5097918;27;20404;-65
2023/09/23 10:51:08;;;;;;;4.38;1.50;;;;;;;;;;5100122;28;20485;-65
2023/09/23 10:53:35;;;;;;;4.20;2.00;;;;;;;;;;5111169;28;20487;-65
2023/09/23 10:56:02;;;;;;;5.18;1.77;;;;;;;;;;5099216;28;20410;-65
2023/09/23 10:58:31;;;;;;;3.75;1.90;;;;;;;;;;5101855;28;20413;-65
2023/09/23 11:00:58;;;;;;;4.78;1.80;;;;;;;;;;5099520;28;20424;-66
2023/09/23 11:03:25;;;;;;;5.53;2.05;;;;;;;;;;5093101;28;20406;-65
2023/09/23 11:05:54;;;;;;;3.25;1.60;;;;;;;;;;5094876;28;20459;-65
2023/09/23 11:08:22;;;;;;;4.57;1.67;;;;;;;;;;5094854;28;20414;-65
2023/09/23 11:10:50;;;;;;;3.78;1.70;;;;;;;;;;5094477;28;20765;-65
2023/09/23 11:13:17;;;;;;;5.15;1.40;;;;;;;;;;5092326;28;20436;-64
2023/09/23 11:15:48;;;;;;;2.95;1.35;;;;;;;;;;5090860;28;21287;-64
2023/09/23 11:18:15;;;;;;;4.05;1.60;;;;;;;;;;5096116;27;20429;-66
2023/09/23 11:20:43;;;;;;;3.95;1.70;;;;;;;;;;5103753;28;20910;-64
2023/09/23 11:23:12;;;;;;;4.10;1.67;;;;;;;;;;5100453;28;20410;-64
2023/09/23 11:25:41;;;;;;;2.80;1.40;;;;;;;;;;5101381;28;20409;-65
2023/09/23 11:28:08;;;;;;;2.75;1.50;;;;;;;;;;5098129;28;20493;-65
2023/09/23 11:30:35;;;;;;;3.97;1.30;;;;;;;;;;5098652;28;20408;-65
2023/09/23 11:33:03;;;;;;;4.07;1.30;;;;;;;;;;5102031;28;20463;-64
2023/09/23 11:35:30;;;;;;;4.47;1.55;;;;;;;;;;5094246;28;20940;-64
2023/09/23 11:37:57;;;;;;;3.63;1.70;;;;;;;;;;5103197;28;20420;-64
2023/09/23 11:40:25;;;;;;;4.07;1.90;;;;;;;;;;5102002;28;20426;-65
2023/09/23 11:42:53;;;;;;;3.60;1.60;;;;;;;;;;5094630;28;20886;-63
2023/09/23 11:45:21;;;;;;;3.65;1.63;;;;;;;;;;5100630;28;20415;-64
2023/09/23 11:47:48;;;;;;;3.10;1.73;;;;;;;;;;5100642;28;20404;-64
2023/09/23 11:50:16;;;;;;;4.13;1.58;;;;;;;;;;5100572;28;20452;-65
2023/09/23 11:52:43;;;;;;;4.43;1.67;;;;;;;;;;5099493;28;20410;-65
2023/09/23 11:55:11;;;;;;;4.22;1.60;;;;;;;;;;5103255;28;20410;-65
2023/09/23 11:57:39;;;;;;;4.10;1.35;;;;;;;;;;5101578;28;20416;-65
2023/09/23 12:00:09;;;;;;;3.55;1.60;;;;;;;;;;5104196;28;20420;-65
2023/09/23 12:02:37;;;;;;;4.25;1.67;;;;;;;;;;5102305;28;20790;-65
2023/09/23 12:05:06;;;;;;;4.63;1.83;;;;;;;;;;5099292;28;20458;-63
2023/09/23 12:07:33;;;;;;;4.05;1.70;;;;;;;;;;5099214;28;20499;-64
2023/09/23 12:10:00;;;;;;;5.43;1.60;;;;;;;;;;5101200;28;20401;-64
2023/09/23 12:12:28;;;;;;;3.25;1.50;;;;;;;;;;5100995;28;20822;-64
2023/09/23 12:14:56;;;;;;;2.85;1.40;;;;;;;;;;5110210;22;20819;-62
2023/09/23 12:17:23;;;;;;;3.60;1.60;;;;;;;;;;5079447;28;20412;-63
2023/09/23 12:19:50;;;;;;;3.60;1.23;;;;;;;;;;5078809;28;20426;-63
2023/09/23 12:22:17;;;;;;;2.80;1.15;;;;;;;;;;5081152;28;20459;-64
2023/09/23 12:24:45;;;;;;;3.42;1.20;;;;;;;;;;5080395;28;20857;-63
2023/09/23 12:27:12;;;;;;;2.97;1.20;;;;;;;;;;5077976;28;20422;-65
2023/09/23 12:29:39;;;;;;;2.42;1.20;;;;;;;;;;5079661;28;20407;-64
2023/09/23 12:32:08;;;;;;;3.13;1.40;;;;;;;;;;5078749;28;20794;-64
2023/09/23 12:34:35;;;;;;;3.40;1.25;;;;;;;;;;5081024;28;20470;-64
2023/09/23 12:37:03;;;;;;;3.58;1.30;;;;;;;;;;5080817;28;20416;-61
2023/09/23 12:39:30;;;;;;;2.92;1.13;;;;;;;;;;5072185;28;20455;-62
2023/09/23 12:41:57;;;;;;;2.25;1.20;;;;;;;;;;5070025;28;20411;-62
2023/09/23 12:44:24;;;;;;;2.55;1.10;;;;;;;;;;5069919;28;20961;-63
2023/09/23 12:46:51;;;;;;;3.55;1.30;;;;;;;;;;5070084;28;20412;-64
2023/09/23 12:49:19;;;;;;;4.57;1.30;;;;;;;;;;5070021;28;20416;-65
2023/09/23 12:51:47;;;;;;;3.92;1.20;;;;;;;;;;5079179;28;21008;-63
2023/09/23 12:54:14;;;;;;;3.83;1.20;;;;;;;;;;5079207;28;20421;-63
2023/09/23 12:56:41;;;;;;;4.00;1.37;;;;;;;;;;5082508;28;20414;-64
2023/09/23 12:59:08;;;;;;;3.35;1.38;;;;;;;;;;5080529;28;20410;-64
2023/09/23 13:01:35;;;;;;;3.20;1.10;;;;;;;;;;5081652;28;20926;-63
2023/09/23 13:04:03;;;;;;;3.55;1.20;;;;;;;;;;5083395;28;20509;-64
2023/09/23 13:06:31;;;;;;;2.95;1.20;;;;;;;;;;5084293;28;20494;-64
2023/09/23 13:08:58;;;;;;;3.55;1.10;;;;;;;;;;5081757;28;20413;-64
2023/09/23 13:11:25;;;;;;;4.15;1.02;;;;;;;;;;5087692;28;20957;-62
2023/09/23 13:13:52;;;;;;;2.90;1.30;;;;;;;;;;5091539;28;20406;-64
2023/09/23 13:16:19;;;;;;;2.33;1.20;;;;;;;;;;5084995;28;20476;-64
2023/09/23 13:18:46;;;;;;;2.92;1.40;;;;;;;;;;5083281;28;20775;-64
2023/09/23 13:21:13;;;;;;;3.40;1.10;;;;;;;;;;5082918;28;20423;-64
2023/09/23 13:23:42;;;;;;;2.10;1.23;;;;;;;;;;5078963;28;20422;-64
2023/09/23 13:26:09;;;;;;;3.22;1.40;;;;;;;;;;5085857;28;20445;-65
2023/09/23 13:28:39;;;;;;;3.22;1.35;;;;;;;;;;5085375;28;20517;-65
2023/09/23 13:31:06;;;;;;;3.30;1.25;;;;;;;;;;5081221;28;20413;-64
2023/09/23 13:33:33;;;;;;;3.60;1.20;;;;;;;;;;5081841;28;20411;-64
2023/09/23 13:36:00;;;;;;;4.80;1.50;;;;;;;;;;5083375;28;20432;-63
2023/09/23 13:38:27;;;;;;;2.65;1.30;;;;;;;;;;5077822;28;20411;-63
2023/09/23 13:40:55;;;;;;;3.85;1.50;;;;;;;;;;5085101;28;20471;-64
2023/09/23 13:43:22;;;;;;;3.90;1.50;;;;;;;;;;5083709;28;20493;-64
2023/09/23 13:45:49;;;;;;;3.03;1.50;;;;;;;;;;5086570;28;20417;-64
2023/09/23 13:48:16;;;;;;;3.28;1.70;;;;;;;;;;5084462;28;20409;-64
2023/09/23 13:50:44;;;;;;;5.68;1.90;;;;;;;;;;5082199;28;20462;-64
2023/09/23 13:53:11;;;;;;;4.00;1.43;;;;;;;;;;5081354;28;20518;-63
2023/09/23 13:55:38;;;;;;;3.47;1.50;;;;;;;;;;5084858;28;20887;-64
2023/09/23 13:58:07;;;;;;;4.28;1.95;;;;;;;;;;5082688;28;20892;-64
2023/09/23 14:00:34;;;;;;;3.90;1.45;;;;;;;;;;5085413;28;20422;-64
2023/09/23 14:03:01;;;;;;;5.53;1.70;;;;;;;;;;5080072;28;20407;-64
2023/09/23 14:05:28;;;;;;;4.80;1.88;;;;;;;;;;5083802;28;20526;-64
2023/09/23 14:07:55;;;;;;;2.78;1.30;;;;;;;;;;5081657;28;20434;-64
2023/09/23 14:10:22;;;;;;;3.45;1.40;;;;;;;;;;5081075;28;20399;-64
2023/09/23 14:12:49;;;;;;;3.90;1.40;;;;;;;;;;5076788;28;20435;-63
2023/09/23 14:15:19;;;;;;;4.63;1.52;;;;;;;;;;5078521;28;20415;-64
2023/09/23 14:17:47;;;;;;;5.60;1.83;;;;;;;;;;5082615;28;20840;-64
2023/09/23 14:20:14;;;;;;;3.28;1.60;;;;;;;;;;5081192;28;20415;-64
2023/09/23 14:22:45;;;;;;;3.20;1.63;;;;;;;;;;5080155;28;20955;-64
2023/09/23 14:25:12;;;;;;;5.82;1.73;;;;;;;;;;5079650;28;20477;-64
2023/09/23 14:27:39;;;;;;;3.65;1.50;;;;;;;;;;5082777;28;20406;-64
2023/09/23 14:30:08;;;;;;;3.90;1.37;;;;;;;;;;5080469;28;20416;-64
2023/09/23 14:32:36;;;;;;;3.50;1.58;;;;;;;;;;5080534;28;20420;-64
2023/09/23 14:35:03;;;;;;;5.90;1.70;;;;;;;;;;5082194;28;20402;-64
2023/09/23 14:37:30;;;;;;;4.20;1.70;;;;;;;;;;5083786;28;20414;-65
2023/09/23 14:39:58;;;;;;;4.72;1.73;;;;;;;;;;5083087;28;20413;-65
2023/09/23 14:42:25;;;;;;;5.43;1.83;;;;;;;;;;5082078;28;20450;-66
2023/09/23 14:44:52;;;;;;;5.03;1.75;;;;;;;;;;5080158;28;20485;-65